Terminal Aerodrome Forecast
Issued by NWS

Home | Current Version | Previous Version | Text Only | Print | Product List | Glossary On
Versions: 1 2 3 4 5 6 7 8 9 10 11 12 13 14
000
FTUS43 KLSX 260520
TAFUIN
TAF
KUIN 260520Z 2606/2706 18008KT P6SM OVC060
     FM260800 18008KT P6SM VCTS BKN035CB
     FM261200 19007KT P6SM BKN040
     FM262200 16008KT P6SM SCT200=

USA.gov is the U.S. government's official web portal to all federal, state and local government web resources and services.